createdAt,value
2018-10-01T04:45:34.545Z,3
2018-10-01T04:54:06.254Z,7
2018-10-01T04:56:36.817Z,10
2018-10-01T04:57:37.042Z,13
2018-10-01T04:58:37.417Z,17
2018-10-01T05:00:07.525Z,20
2018-10-01T05:02:38.115Z,23
2018-10-01T05:03:08.121Z,27
2018-10-01T05:03:38.318Z,30
2018-10-01T05:04:08.774Z,33
2018-10-01T05:04:38.600Z,37
2018-10-01T05:05:08.626Z,40
2018-10-01T05:05:38.806Z,43
2018-10-01T05:06:09.028Z,47
2018-10-01T05:07:09.018Z,50
2018-10-01T05:07:39.219Z,53
2018-10-01T05:08:09.220Z,57
2018-10-01T05:08:39.396Z,67
2018-10-01T05:09:09.444Z,77
2018-10-01T05:09:39.600Z,93
2018-10-01T05:10:09.677Z,110
2018-10-01T05:10:39.785Z,123
2018-10-01T05:11:09.819Z,137
2018-10-01T05:11:39.999Z,153
2018-10-01T05:12:10.048Z,170
2018-10-01T05:12:40.308Z,187
2018-10-01T05:13:10.282Z,200
2018-10-01T05:13:40.581Z,210
2018-10-01T05:14:10.490Z,220
2018-10-01T05:14:40.688Z,230
2018-10-01T05:15:10.764Z,233
2018-10-01T05:15:40.848Z,243
2018-10-01T05:16:10.880Z,257
2018-10-01T05:16:41.093Z,270
2018-10-01T05:17:11.103Z,283
2018-10-01T05:17:41.301Z,290
2018-10-01T05:18:41.480Z,280
2018-10-01T05:19:11.547Z,273
2018-10-01T05:20:12.012Z,280
2018-10-01T05:20:41.960Z,287
2018-10-01T05:21:42.126Z,297
2018-10-01T05:22:12.152Z,307
2018-10-01T05:22:42.419Z,310
2018-10-01T05:23:12.371Z,323
2018-10-01T05:23:42.609Z,353
2018-10-01T05:24:12.584Z,387
2018-10-01T05:24:43.452Z,430
2018-10-01T05:25:12.852Z,483
2018-10-01T05:25:42.970Z,510
2018-10-01T05:26:13.005Z,527
2018-10-01T05:26:43.205Z,530
2018-10-01T05:27:13.240Z,533
2018-10-01T05:27:43.420Z,530
2018-10-01T05:28:13.468Z,523
2018-10-01T05:28:43.638Z,513
2018-10-01T05:29:43.821Z,543
2018-10-01T05:30:13.880Z,577
2018-10-01T05:30:44.032Z,620
2018-10-01T05:31:14.126Z,650
2018-10-01T05:31:44.258Z,697
2018-10-01T05:32:14.275Z,790
2018-10-01T05:32:44.490Z,910
2018-10-01T05:33:14.530Z,1037
2018-10-01T05:33:44.694Z,1147
2018-10-01T05:34:14.729Z,1240
2018-10-01T05:34:44.879Z,1277
2018-10-01T05:35:14.985Z,1293
2018-10-01T05:35:45.099Z,1297
2018-10-01T05:36:15.118Z,1247
2018-10-01T05:36:45.301Z,1183
2018-10-01T05:37:15.333Z,1157
2018-10-01T05:37:45.591Z,1150
2018-10-01T05:38:15.553Z,1207
2018-10-01T05:38:45.743Z,1340
2018-10-01T05:39:15.799Z,1463
2018-10-01T05:39:45.968Z,1487
2018-10-01T05:40:46.165Z,1523
2018-10-01T05:41:16.258Z,1543
2018-10-01T05:41:46.388Z,1513
2018-10-01T05:42:16.449Z,1557
2018-10-01T05:42:46.626Z,1677
2018-10-01T05:43:16.648Z,1737
2018-10-01T05:43:46.815Z,1703
2018-10-01T05:44:16.826Z,1627
2018-10-01T05:44:47.013Z,1567
2018-10-01T05:45:17.037Z,1537
2018-10-01T05:45:47.250Z,1473
2018-10-01T05:46:17.307Z,1433
2018-10-01T05:46:47.505Z,1400
2018-10-01T05:47:17.534Z,1310
2018-10-01T05:47:47.715Z,1227
2018-10-01T05:48:17.776Z,1183
2018-10-01T05:48:47.998Z,1170
2018-10-01T05:49:17.982Z,1183
2018-10-01T05:49:48.184Z,1217
2018-10-01T05:50:18.225Z,1277
2018-10-01T05:50:48.426Z,1317
2018-10-01T05:51:48.545Z,1310
2018-10-01T05:52:18.640Z,1267
2018-10-01T05:52:48.776Z,1207
2018-10-01T05:53:18.783Z,1180
2018-10-01T05:53:48.981Z,1170
2018-10-01T05:54:18.993Z,1077
2018-10-01T05:54:49.180Z,1000
2018-10-01T05:55:19.257Z,970
2018-10-01T05:55:49.494Z,997
2018-10-01T05:56:19.430Z,1060
2018-10-01T05:56:49.656Z,1113
2018-10-01T05:57:19.707Z,1107
2018-10-01T05:57:49.835Z,1010
2018-10-01T05:58:19.859Z,1063
2018-10-01T05:58:50.067Z,1263
2018-10-01T05:59:20.061Z,1553
2018-10-01T05:59:50.295Z,1830
2018-10-01T06:00:20.281Z,2017
2018-10-01T06:00:50.517Z,2063
2018-10-01T06:01:20.536Z,2197
2018-10-01T06:02:20.735Z,2203
2018-10-01T06:02:50.958Z,2340
2018-10-01T06:03:20.948Z,2563
2018-10-01T06:03:51.158Z,2780
2018-10-01T06:04:21.192Z,3000
2018-10-01T06:04:51.447Z,3230
2018-10-01T06:05:21.365Z,3320
2018-10-01T06:05:51.613Z,3450
2018-10-01T06:06:21.570Z,3563
2018-10-01T06:06:51.771Z,3663
2018-10-01T06:07:21.775Z,3817
2018-10-01T06:07:51.930Z,3617
2018-10-01T06:08:21.963Z,3373
2018-10-01T06:08:52.143Z,3267
2018-10-01T06:09:22.214Z,3237
2018-10-01T06:09:52.386Z,3307
2018-10-01T06:10:22.485Z,3423
2018-10-01T06:10:52.719Z,3477
2018-10-01T06:11:22.627Z,3417
2018-10-01T06:11:52.879Z,3317
2018-10-01T06:12:22.813Z,3057
2018-10-01T06:12:52.996Z,2700
2018-10-01T06:13:23.037Z,2397
2018-10-01T06:13:53.225Z,2217
2018-10-01T06:14:23.237Z,2180
2018-10-01T06:14:53.459Z,2267
2018-10-01T06:15:23.490Z,2427
2018-10-01T06:15:53.658Z,2657
2018-10-01T06:16:23.715Z,2920
2018-10-01T06:16:53.855Z,3143
2018-10-01T06:17:23.922Z,3177
2018-10-01T06:17:54.153Z,3023
2018-10-01T06:18:24.134Z,2817
2018-10-01T06:18:54.307Z,2547
2018-10-01T06:19:24.349Z,2343
2018-10-01T06:19:54.512Z,2237
2018-10-01T06:20:24.524Z,2093
2018-10-01T06:20:54.955Z,1983
2018-10-01T06:21:24.768Z,1957
2018-10-01T06:21:54.899Z,1973
2018-10-01T06:22:24.933Z,1993
2018-10-01T06:22:55.128Z,1997
2018-10-01T06:23:25.171Z,2017
2018-10-01T06:23:55.374Z,1950
2018-10-01T06:24:25.370Z,1967
2018-10-01T06:24:55.593Z,1790
2018-10-01T06:25:25.569Z,1740
2018-10-01T06:25:55.769Z,1673
2018-10-01T06:26:25.779Z,1843
2018-10-01T06:26:55.958Z,1970
2018-10-01T06:27:25.989Z,1737
2018-10-01T06:27:56.174Z,1563
2018-10-01T06:28:26.236Z,1467
2018-10-01T06:28:56.432Z,1537
2018-10-01T06:29:26.498Z,1757
2018-10-01T06:29:56.646Z,1993
2018-10-01T06:30:26.672Z,2147
2018-10-01T06:30:56.936Z,2530
2018-10-01T06:31:26.897Z,2267
2018-10-01T06:31:57.063Z,1973
2018-10-01T06:32:27.108Z,1753
2018-10-01T06:32:57.329Z,1693
2018-10-01T06:33:27.321Z,1920
2018-10-01T06:33:57.470Z,2367
2018-10-01T06:34:27.533Z,2637
2018-10-01T06:34:57.685Z,3167
2018-10-01T06:35:27.700Z,3577
2018-10-01T06:35:57.953Z,3697
2018-10-01T06:36:27.911Z,3957
2018-10-01T06:36:58.174Z,3917
2018-10-01T06:37:28.129Z,4050
2018-10-01T06:37:58.380Z,3840
2018-10-01T06:38:28.376Z,3307
2018-10-01T06:38:58.558Z,4243
2018-10-01T06:39:28.648Z,4107
2018-10-01T06:39:58.733Z,3713
2018-10-01T06:40:28.762Z,3640
2018-10-01T06:40:59.009Z,3823
2018-10-01T06:41:28.975Z,3933
2018-10-01T06:41:59.269Z,3797
2018-10-01T06:42:29.190Z,3840
2018-10-01T06:42:59.377Z,4187
2018-10-01T06:43:29.491Z,4793
2018-10-01T06:43:59.645Z,4907
2018-10-01T06:44:29.645Z,5070
2018-10-01T06:44:59.879Z,5397
2018-10-01T06:45:29.870Z,5437
2018-10-01T06:46:00.026Z,5207
2018-10-01T06:46:30.083Z,5117
2018-10-01T06:47:01.409Z,5360
2018-10-01T06:47:30.336Z,5667
2018-10-01T06:48:01.490Z,6027
2018-10-01T06:48:30.533Z,6480
2018-10-01T06:49:01.753Z,6580
2018-10-01T06:49:30.745Z,6720
2018-10-01T06:50:01.769Z,7020
2018-10-01T06:50:30.898Z,6940
2018-10-01T06:51:01.705Z,6903
2018-10-01T06:51:31.140Z,6867
2018-10-01T06:52:01.289Z,6583
2018-10-01T06:52:31.325Z,6187
2018-10-01T06:53:01.560Z,5400
2018-10-01T06:53:31.579Z,4903
2018-10-01T06:54:01.749Z,5183
2018-10-01T06:54:31.750Z,5243
2018-10-01T06:55:01.961Z,4897
2018-10-01T06:55:31.943Z,4997
2018-10-01T06:56:02.410Z,5417
2018-10-01T06:56:32.160Z,5547
2018-10-01T06:57:02.357Z,5960
2018-10-01T06:57:32.402Z,6090
2018-10-01T06:58:02.572Z,5953
2018-10-01T06:58:32.629Z,6423
2018-10-01T06:59:02.791Z,6360
2018-10-01T06:59:32.800Z,6180
2018-10-01T07:00:03.056Z,5940
2018-10-01T07:00:33.041Z,5843
2018-10-01T07:01:03.283Z,6363
2018-10-01T07:01:33.274Z,7027
2018-10-01T07:02:03.433Z,7483
2018-10-01T07:02:33.481Z,7887
2018-10-01T07:03:03.611Z,8297
2018-10-01T07:03:33.738Z,8507
2018-10-01T07:04:03.983Z,8703
2018-10-01T07:04:33.855Z,8650
2018-10-01T07:05:04.049Z,8847
2018-10-01T07:05:34.196Z,9103
2018-10-01T07:06:04.283Z,9287
2018-10-01T07:06:34.332Z,8957
2018-10-01T07:07:04.477Z,9313
2018-10-01T07:07:34.515Z,9710
2018-10-01T07:08:04.696Z,9983
2018-10-01T07:08:34.706Z,10293
2018-10-01T07:09:04.940Z,10417
2018-10-01T07:09:34.935Z,10540
2018-10-01T07:10:05.089Z,10313
2018-10-01T07:10:35.127Z,10290
2018-10-01T07:11:05.448Z,9727
2018-10-01T07:11:35.561Z,8807
2018-10-01T07:12:05.552Z,8287
2018-10-01T07:12:35.607Z,8053
2018-10-01T07:13:05.821Z,7847
2018-10-01T07:13:35.806Z,8320
2018-10-01T07:14:05.993Z,8417
2018-10-01T07:14:36.032Z,8843
2018-10-01T07:15:06.182Z,8580
2018-10-01T07:15:36.261Z,8947
2018-10-01T07:16:06.465Z,9220
2018-10-01T07:16:36.464Z,10427
2018-10-01T07:17:06.671Z,10937
2018-10-01T07:17:36.668Z,10373
2018-10-01T07:18:06.790Z,11567
2018-10-01T07:18:36.866Z,11810
2018-10-01T07:19:07.053Z,10847
2018-10-01T07:19:37.094Z,10487
2018-10-01T07:20:07.266Z,8913
2018-10-01T07:20:37.294Z,8427
2018-10-01T07:21:07.508Z,10780
2018-10-01T07:21:37.509Z,11227
2018-10-01T07:22:07.711Z,11367
2018-10-01T07:22:37.818Z,10477
2018-10-01T07:23:08.001Z,10923
2018-10-01T07:23:37.897Z,10737
2018-10-01T07:24:08.086Z,10127
2018-10-01T07:24:38.171Z,10303
2018-10-01T07:25:08.306Z,9630
2018-10-01T07:25:38.372Z,10777
2018-10-01T07:26:08.547Z,11180
2018-10-01T07:26:38.563Z,10673
2018-10-01T07:27:08.698Z,10590
2018-10-01T07:27:38.736Z,11560
2018-10-01T07:28:08.930Z,11247
2018-10-01T07:28:38.951Z,11307
2018-10-01T07:29:09.205Z,10257
2018-10-01T07:29:39.198Z,10920
2018-10-01T07:30:09.558Z,11127
2018-10-01T07:30:39.403Z,11610
2018-10-01T07:31:09.808Z,11850
2018-10-01T07:31:39.639Z,10850
2018-10-01T07:32:09.788Z,9220
2018-10-01T07:32:39.804Z,9097
2018-10-01T07:33:10.015Z,10650
2018-10-01T07:33:40.052Z,11420
2018-10-01T07:34:10.259Z,10993
2018-10-01T07:34:40.316Z,10240
2018-10-01T07:35:10.472Z,10363
2018-10-01T07:35:40.452Z,10893
2018-10-01T07:36:10.710Z,11373
2018-10-01T07:36:40.718Z,10873
2018-10-01T07:37:10.841Z,9827
2018-10-01T07:37:40.887Z,10770
2018-10-01T07:38:11.057Z,10003
2018-10-01T07:38:41.166Z,10340
2018-10-01T07:39:11.309Z,12137
2018-10-01T07:39:41.469Z,12830
2018-10-01T07:40:11.529Z,12090
2018-10-01T07:40:41.588Z,10593
2018-10-01T07:41:11.800Z,10677
2018-10-01T07:41:41.746Z,10883
2018-10-01T07:42:11.966Z,11307
2018-10-01T07:42:41.952Z,9907
2018-10-01T07:43:12.216Z,9617
2018-10-01T07:43:42.231Z,8557
2018-10-01T07:44:12.352Z,9983
2018-10-01T07:44:42.445Z,11963
2018-10-01T07:45:12.743Z,11827
2018-10-01T07:45:42.608Z,10360
2018-10-01T07:46:18.373Z,9953
2018-10-01T07:46:42.851Z,13590
2018-10-01T07:47:12.986Z,14027
2018-10-01T07:47:43.020Z,13123
2018-10-01T07:48:13.251Z,15250
2018-10-01T07:48:43.289Z,16243
2018-10-01T07:49:13.467Z,16207
2018-10-01T07:49:43.471Z,15173
2018-10-01T07:50:13.670Z,14313
2018-10-01T07:50:43.688Z,14893
2018-10-01T07:51:13.835Z,15543
2018-10-01T07:51:44.155Z,15317
2018-10-01T07:52:14.064Z,15537
2018-10-01T07:52:44.126Z,15500
2018-10-01T07:53:14.284Z,14993
2018-10-01T07:53:44.323Z,14023
2018-10-01T07:54:14.506Z,13467
2018-10-01T07:54:44.545Z,14167
2018-10-01T07:55:14.738Z,13833
2018-10-01T07:55:44.760Z,12247
2018-10-01T07:56:14.927Z,11377
2018-10-01T07:56:45.313Z,13100
2018-10-01T07:57:15.165Z,12143
2018-10-01T07:57:45.211Z,12160
2018-10-01T07:58:15.354Z,12877
2018-10-01T07:58:45.402Z,11760
2018-10-01T07:59:15.587Z,10883
2018-10-01T07:59:45.714Z,10060
2018-10-01T08:00:15.803Z,9650
2018-10-01T08:00:45.775Z,9143
2018-10-01T08:01:15.958Z,9270
2018-10-01T08:01:46.498Z,9053
2018-10-01T08:02:16.252Z,8860
2018-10-01T08:02:46.274Z,9150
2018-10-01T08:03:16.456Z,8853
2018-10-01T08:03:46.445Z,8747
2018-10-01T08:04:16.601Z,8050
2018-10-01T08:04:46.706Z,8020
2018-10-01T08:05:16.812Z,8860
2018-10-01T08:05:46.853Z,8793
2018-10-01T08:06:17.067Z,9557
2018-10-01T08:06:47.311Z,9493
2018-10-01T08:07:17.242Z,9793
2018-10-01T08:07:47.267Z,10343
2018-10-01T08:08:17.580Z,11467
2018-10-01T08:08:47.501Z,12183
2018-10-01T08:09:17.698Z,12643
2018-10-01T08:09:47.750Z,12563
2018-10-01T08:10:17.919Z,12577
2018-10-01T08:10:47.965Z,12797
2018-10-01T08:11:18.096Z,12727
2018-10-01T08:11:48.300Z,12733
2018-10-01T08:12:18.322Z,12653
2018-10-01T08:12:48.369Z,12697
2018-10-01T08:13:18.566Z,11807
2018-10-01T08:13:48.531Z,11143
2018-10-01T08:14:18.780Z,12157
2018-10-01T08:14:48.792Z,12067
2018-10-01T08:15:18.928Z,11720
2018-10-01T08:15:49.007Z,11593
2018-10-01T08:16:19.176Z,11733
2018-10-01T08:16:49.444Z,12000
2018-10-01T08:17:19.409Z,12433
2018-10-01T08:17:49.444Z,12990
2018-10-01T08:18:19.574Z,13277
2018-10-01T08:18:49.655Z,14100
2018-10-01T08:19:49.815Z,15053
2018-10-01T08:20:20.034Z,15280
2018-10-01T08:20:50.041Z,15757
2018-10-01T08:21:20.363Z,16490
2018-10-01T08:21:50.508Z,15420
2018-10-01T08:22:20.416Z,15433
2018-10-01T08:22:50.496Z,16743
2018-10-01T08:23:20.665Z,17457
2018-10-01T08:23:50.718Z,14860
2018-10-01T08:24:20.837Z,14013
2018-10-01T08:24:50.922Z,15077
2018-10-01T08:25:21.093Z,15697
2018-10-01T08:25:51.087Z,17507
2018-10-01T08:26:21.402Z,18753
2018-10-01T08:26:51.590Z,20883
2018-10-01T08:27:21.484Z,20297
2018-10-01T08:27:51.576Z,20053
2018-10-01T08:28:21.694Z,21420
2018-10-01T08:28:51.753Z,20470
2018-10-01T08:29:21.936Z,18483
2018-10-01T08:29:52.154Z,18000
2018-10-01T08:30:22.116Z,15667
2018-10-01T08:30:52.143Z,19083
2018-10-01T08:31:22.383Z,18500
2018-10-01T08:31:52.605Z,15780
2018-10-01T08:32:22.579Z,18547
2018-10-01T08:32:52.614Z,19383
2018-10-01T08:33:22.764Z,18697
2018-10-01T08:33:52.809Z,19083
2018-10-01T08:34:22.989Z,19410
2018-10-01T08:34:52.998Z,20487
2018-10-01T08:35:23.186Z,19620
2018-10-01T08:35:53.260Z,18887
2018-10-01T08:36:23.409Z,20057
2018-10-01T08:36:53.743Z,21220
2018-10-01T08:37:23.636Z,23380
2018-10-01T08:37:53.729Z,22993
2018-10-01T08:38:24.065Z,20443
2018-10-01T08:38:53.927Z,20417
2018-10-01T08:39:24.030Z,24700
2018-10-01T08:39:54.098Z,27057
2018-10-01T08:40:24.301Z,26830
2018-10-01T08:40:54.320Z,26507
2018-10-01T08:41:24.487Z,25520
2018-10-01T08:41:54.779Z,23653
2018-10-01T08:42:24.687Z,24843
2018-10-01T08:42:54.788Z,24483
2018-10-01T08:43:24.879Z,24537
2018-10-01T08:43:54.913Z,24557
2018-10-01T08:44:25.184Z,24260
2018-10-01T08:44:55.127Z,25593
2018-10-01T08:45:25.356Z,26500
2018-10-01T08:45:55.413Z,27433
2018-10-01T08:46:25.584Z,26023
2018-10-01T08:46:55.854Z,23357
2018-10-01T08:47:25.855Z,21060
2018-10-01T08:47:55.786Z,21870
2018-10-01T08:48:25.957Z,21097
2018-10-01T08:48:55.993Z,21980
2018-10-01T08:49:26.186Z,24377
2018-10-01T08:49:56.259Z,26957
2018-10-01T08:50:26.488Z,27480
2018-10-01T08:50:56.486Z,30957
2018-10-01T08:51:26.652Z,31807
2018-10-01T08:51:56.952Z,35803
2018-10-01T08:52:26.843Z,38023
2018-10-01T08:52:56.969Z,37827
2018-10-01T08:53:27.136Z,35353
2018-10-01T08:53:57.056Z,33837
2018-10-01T08:54:27.277Z,33350
2018-10-01T08:54:57.315Z,32093
2018-10-01T08:55:27.502Z,31453
2018-10-01T08:55:57.540Z,31337
2018-10-01T08:56:27.742Z,31627
2018-10-01T08:56:57.961Z,34610
2018-10-01T08:57:27.875Z,36280
2018-10-01T08:57:57.944Z,37777
2018-10-01T08:58:28.091Z,37077
2018-10-01T08:58:58.163Z,35900
2018-10-01T08:59:28.436Z,35150
2018-10-01T08:59:58.395Z,34167
2018-10-01T09:00:28.511Z,32973
2018-10-01T09:00:58.608Z,30803
2018-10-01T09:01:28.756Z,27180
2018-10-01T09:01:59.065Z,22860
2018-10-01T09:02:29.035Z,19850
2018-10-01T09:02:58.966Z,17593
2018-10-01T09:03:29.146Z,16340
2018-10-01T09:03:59.175Z,14837
2018-10-01T09:04:29.418Z,14320
2018-10-01T09:04:59.441Z,14517
2018-10-01T09:05:29.600Z,15090
2018-10-01T09:05:59.683Z,15727
2018-10-01T09:06:29.844Z,17020
2018-10-01T09:07:00.363Z,18543
2018-10-01T09:07:30.034Z,20143
2018-10-01T09:08:00.082Z,21193
2018-10-01T09:08:30.351Z,21677
2018-10-01T09:09:01.013Z,22027
2018-10-01T09:09:30.520Z,22957
2018-10-01T09:10:01.714Z,24177
2018-10-01T09:10:30.633Z,25563
2018-10-01T09:11:01.727Z,26930
2018-10-01T09:11:30.867Z,28067
2018-10-01T09:12:02.228Z,28597
2018-10-01T09:12:31.068Z,28453
2018-10-01T09:13:01.091Z,27320
2018-10-01T09:13:31.279Z,25873
2018-10-01T09:14:01.363Z,24500
2018-10-01T09:14:31.570Z,24600
2018-10-01T09:15:01.603Z,26513
2018-10-01T09:15:31.697Z,29250
2018-10-01T09:16:01.737Z,31703
2018-10-01T09:16:32.004Z,33650
2018-10-01T09:17:02.120Z,35660
2018-10-01T09:17:32.189Z,37550
2018-10-01T09:18:02.150Z,38710
2018-10-01T09:18:32.374Z,39993
2018-10-01T09:19:02.401Z,41530
2018-10-01T09:19:32.636Z,43850
2018-10-01T09:20:02.633Z,46877
2018-10-01T09:20:32.895Z,44097
2018-10-01T09:21:02.864Z,41120
2018-10-01T09:21:33.052Z,42667
2018-10-01T09:22:03.269Z,52363
2018-10-01T09:22:33.274Z,52637
2018-10-01T09:23:03.214Z,39667
2018-10-01T09:23:33.528Z,36883
2018-10-01T09:24:03.478Z,36573
2018-10-01T09:24:33.660Z,36423
2018-10-01T09:25:03.637Z,37857
2018-10-01T09:25:33.850Z,39953
2018-10-01T09:26:03.903Z,40817
2018-10-01T09:26:34.106Z,41307
2018-10-01T09:27:04.327Z,38583
2018-10-01T09:27:34.241Z,35687
2018-10-01T09:28:04.318Z,33860
2018-10-01T09:28:34.549Z,32077
2018-10-01T09:29:04.515Z,32360
2018-10-01T09:29:34.699Z,30913
2018-10-01T09:30:04.697Z,28677
2018-10-01T09:30:34.907Z,27930
2018-10-01T09:31:05.047Z,28140
2018-10-01T09:31:35.098Z,27733
2018-10-01T09:32:05.407Z,25307
2018-10-01T09:32:35.384Z,25010
2018-10-01T09:33:05.382Z,26460
2018-10-01T09:33:35.561Z,26010
2018-10-01T09:34:05.607Z,25863
2018-10-01T09:34:35.765Z,28033
2018-10-01T09:35:05.828Z,28560
2018-10-01T09:35:36.020Z,29740
2018-10-01T09:36:06.095Z,31150
2018-10-01T09:36:36.197Z,32420
2018-10-01T09:37:06.442Z,33337
2018-10-01T09:37:36.372Z,31487
2018-10-01T09:38:06.493Z,29537
2018-10-01T09:38:36.661Z,30963
2018-10-01T09:39:06.665Z,25133
2018-10-01T09:39:36.789Z,22103
2018-10-01T09:40:06.867Z,23573
2018-10-01T09:40:37.103Z,25683
2018-10-01T09:41:07.029Z,25507
2018-10-01T09:41:37.249Z,21960
2018-10-01T09:42:07.582Z,24007
2018-10-01T09:42:37.437Z,26877
2018-10-01T09:43:07.515Z,26360
2018-10-01T09:43:37.675Z,25217
2018-10-01T09:44:07.784Z,27590
2018-10-01T09:44:37.998Z,27223
2018-10-01T09:45:07.865Z,26273
2018-10-01T09:45:38.077Z,25773
2018-10-01T09:46:08.151Z,26350
2018-10-01T09:46:38.460Z,29150
2018-10-01T09:47:08.591Z,33710
2018-10-01T09:47:38.514Z,32793
2018-10-01T09:48:08.583Z,25947
2018-10-01T09:48:38.792Z,24153
2018-10-01T09:49:08.770Z,22720
2018-10-01T09:49:38.930Z,22073
2018-10-01T09:50:09.005Z,23313
2018-10-01T09:50:39.141Z,24870
2018-10-01T09:51:09.216Z,28333
2018-10-01T09:51:39.363Z,34887
2018-10-01T09:52:09.712Z,42397
2018-10-01T09:52:39.532Z,58347
2018-10-01T09:53:09.595Z,73173
2018-10-01T09:53:39.798Z,67857
2018-10-01T09:54:09.770Z,63683
2018-10-01T09:54:39.958Z,89583
2018-10-01T09:55:09.993Z,86270
2018-10-01T09:55:40.202Z,71433
2018-10-01T09:56:10.289Z,79850
2018-10-01T09:56:40.540Z,74007
2018-10-01T09:57:10.694Z,56730
2018-10-01T09:57:40.629Z,44063
2018-10-01T09:58:10.709Z,83007
2018-10-01T09:58:40.884Z,82663
2018-10-01T09:59:10.846Z,80293
2018-10-01T09:59:41.037Z,77740
2018-10-01T10:00:11.106Z,49843
2018-10-01T10:00:41.300Z,40603
2018-10-01T10:01:11.286Z,38093
2018-10-01T10:01:41.508Z,79790
2018-10-01T10:02:11.940Z,80587
2018-10-01T10:02:41.717Z,83617
2018-10-01T10:03:11.749Z,66163
2018-10-01T10:03:41.938Z,42003
2018-10-01T10:04:12.171Z,57127
2018-10-01T10:04:42.251Z,82937
2018-10-01T10:05:12.191Z,84297
2018-10-01T10:05:42.390Z,86710
2018-10-01T10:06:12.404Z,73387
2018-10-01T10:06:42.588Z,79480
2018-10-01T10:07:12.822Z,65637
2018-10-01T10:07:42.750Z,73327
2018-10-01T10:08:12.875Z,63107
2018-10-01T10:08:42.988Z,56427
2018-10-01T10:09:13.008Z,51207
2018-10-01T10:09:43.170Z,48283
2018-10-01T10:10:13.346Z,46723
2018-10-01T10:10:43.426Z,45007
2018-10-01T10:11:13.487Z,47187
2018-10-01T10:11:43.651Z,42317
2018-10-01T10:12:13.886Z,40953
2018-10-01T10:12:43.829Z,40117
2018-10-01T10:13:13.881Z,39637
2018-10-01T10:13:44.086Z,40130
2018-10-01T10:14:14.182Z,40110
2018-10-01T10:14:44.280Z,40453
2018-10-01T10:15:14.298Z,40963
2018-10-01T10:15:44.490Z,41753
2018-10-01T10:16:14.655Z,42393
2018-10-01T10:16:44.797Z,42500
2018-10-01T10:17:15.031Z,44263
2018-10-01T10:17:44.918Z,44910
2018-10-01T10:18:15.008Z,42877
2018-10-01T10:18:45.179Z,41707
2018-10-01T10:19:15.209Z,44617
2018-10-01T10:19:45.372Z,49357
2018-10-01T10:20:15.490Z,45713
2018-10-01T10:20:45.583Z,44293
2018-10-01T10:21:15.591Z,42283
2018-10-01T10:21:45.776Z,41377
2018-10-01T10:22:16.141Z,40237
2018-10-01T10:22:45.982Z,39327
2018-10-01T10:23:16.029Z,39180
2018-10-01T10:23:46.221Z,38187
2018-10-01T10:24:16.288Z,37207
2018-10-01T10:24:46.488Z,36360
2018-10-01T10:25:16.480Z,35990
2018-10-01T10:25:46.644Z,35557
2018-10-01T10:26:16.843Z,35983
2018-10-01T10:26:46.852Z,36693
2018-10-01T10:27:17.180Z,37187
2018-10-01T10:27:47.064Z,38500
2018-10-01T10:28:17.172Z,39143
2018-10-01T10:28:47.280Z,39620
2018-10-01T10:29:17.391Z,40203
2018-10-01T10:29:47.531Z,51327
2018-10-01T10:30:17.515Z,56450
2018-10-01T10:30:47.730Z,42450
2018-10-01T10:31:18.635Z,37380
2018-10-01T10:31:47.966Z,36800
2018-10-01T10:32:18.251Z,37323
2018-10-01T10:32:48.153Z,37620
2018-10-01T10:33:18.210Z,38610
2018-10-01T10:33:48.397Z,40673
2018-10-01T10:34:18.468Z,43027
2018-10-01T10:34:48.570Z,44163
2018-10-01T10:35:18.691Z,44293
2018-10-01T10:35:48.850Z,46673
2018-10-01T10:36:18.799Z,51890
2018-10-01T10:36:49.017Z,54840
2018-10-01T10:37:19.532Z,48907
2018-10-01T10:37:49.232Z,47123
2018-10-01T10:38:19.339Z,58583
2018-10-01T10:38:49.497Z,37710
2018-10-01T10:39:19.482Z,34910
2018-10-01T10:39:49.669Z,47350
2018-10-01T10:40:19.693Z,46930
2018-10-01T10:40:49.870Z,39563
2018-10-01T10:41:19.900Z,39857
2018-10-01T10:41:50.142Z,48047
2018-10-01T10:42:20.409Z,64217
2018-10-01T10:42:50.332Z,40113
2018-10-01T10:43:20.345Z,33313
2018-10-01T10:43:50.560Z,36883
2018-10-01T10:44:20.649Z,37657
2018-10-01T10:44:50.766Z,40613
2018-10-01T10:45:20.793Z,78460
2018-10-01T10:45:50.990Z,76287
2018-10-01T10:46:21.021Z,65590
2018-10-01T10:46:51.205Z,69630
2018-10-01T10:47:21.681Z,70733
2018-10-01T10:47:51.427Z,68750
2018-10-01T10:48:21.421Z,68820
2018-10-01T10:48:51.712Z,65653
2018-10-01T10:49:21.686Z,65407
2018-10-01T10:49:51.821Z,65780
2018-10-01T10:50:21.893Z,63430
2018-10-01T10:50:52.026Z,60807
2018-10-01T10:51:22.073Z,64907
2018-10-01T10:51:52.241Z,58893
2018-10-01T10:52:22.837Z,70470
2018-10-01T10:52:52.497Z,67777
2018-10-01T10:53:22.552Z,65393
2018-10-01T10:53:52.717Z,20260
2018-10-01T10:54:22.739Z,19997
2018-10-01T10:54:52.874Z,16187
2018-10-01T10:55:22.898Z,43443
2018-10-01T10:55:53.090Z,68497
2018-10-01T10:56:23.164Z,68683
2018-10-01T10:56:53.363Z,68660
2018-10-01T10:57:23.603Z,33547
2018-10-01T10:57:53.544Z,20930
2018-10-01T10:58:23.573Z,14830
2018-10-01T10:58:53.774Z,14683
2018-10-01T10:59:23.805Z,14833
2018-10-01T11:00:24.066Z,15740
2018-10-01T11:00:54.185Z,16610
2018-10-01T11:01:24.255Z,17970
2018-10-01T11:01:54.405Z,19867
2018-10-01T11:02:24.687Z,21430
2018-10-01T11:02:54.597Z,24870
2018-10-01T11:03:24.623Z,42970
2018-10-01T11:03:54.820Z,72287
2018-10-01T11:04:24.839Z,72337
2018-10-01T11:04:54.994Z,73373
2018-10-01T11:05:25.025Z,76020
2018-10-01T11:05:55.242Z,78873
2018-10-01T11:06:25.259Z,82673
2018-10-01T11:06:55.448Z,84940
2018-10-01T11:07:25.717Z,86577
2018-10-01T11:07:55.748Z,87467
2018-10-01T11:08:25.725Z,84250
2018-10-01T11:08:55.845Z,85570
2018-10-01T11:09:25.890Z,82577
2018-10-01T11:09:56.071Z,81317
2018-10-01T11:10:26.091Z,82773
2018-10-01T11:10:56.272Z,84030
2018-10-01T11:11:26.347Z,82193
2018-10-01T11:11:56.531Z,27540
2018-10-01T11:12:26.801Z,24323
2018-10-01T11:12:56.736Z,21893
2018-10-01T11:13:26.772Z,19467
2018-10-01T11:13:57.100Z,19527
2018-10-01T11:14:27.123Z,18733
2018-10-01T11:14:57.276Z,69170
2018-10-01T11:15:27.315Z,67387
2018-10-01T11:15:57.414Z,66173
2018-10-01T11:16:27.399Z,65143
2018-10-01T11:16:57.581Z,64173
2018-10-01T11:17:28.239Z,63583
2018-10-01T11:17:57.788Z,62907
2018-10-01T11:18:27.893Z,62720
2018-10-01T11:18:58.212Z,62020
2018-10-01T11:19:28.029Z,61527
2018-10-01T11:19:58.325Z,60990
2018-10-01T11:20:28.416Z,60707
2018-10-01T11:20:58.561Z,60517
2018-10-01T11:21:28.624Z,60320
2018-10-01T11:21:58.822Z,60283
2018-10-01T11:22:32.188Z,60087
2018-10-01T11:22:58.961Z,60100
2018-10-01T11:23:28.934Z,59677
2018-10-01T11:23:59.086Z,59643
2018-10-01T11:24:29.098Z,60067
2018-10-01T11:24:59.315Z,59813
2018-10-01T11:25:29.479Z,59960
2018-10-01T11:25:59.544Z,59890
2018-10-01T11:26:29.548Z,59870
2018-10-01T11:26:59.765Z,59920
2018-10-01T11:27:29.909Z,59830
2018-10-01T11:28:00.025Z,59890
2018-10-01T11:28:30.006Z,60033
2018-10-01T11:29:00.311Z,59980
2018-10-01T11:29:30.225Z,60053
2018-10-01T11:30:02.008Z,59777
2018-10-01T11:30:30.459Z,60077
2018-10-01T11:31:02.441Z,60080
2018-10-01T11:31:30.619Z,59963
2018-10-01T11:32:00.967Z,60190
2018-10-01T11:32:30.859Z,60030
2018-10-01T11:33:01.098Z,59993
2018-10-01T11:33:31.088Z,60067
2018-10-01T11:34:01.512Z,60500
2018-10-01T11:34:31.330Z,60683
2018-10-01T11:35:01.548Z,60653
2018-10-01T11:35:31.471Z,61607
2018-10-01T11:36:01.837Z,62173
2018-10-01T11:36:31.729Z,63873
2018-10-01T11:37:02.274Z,65303
2018-10-01T11:37:31.892Z,67803
2018-10-01T11:38:02.140Z,70580